LGSM Airport Information

Runway Information
Runway 09 Length 6706 ft width 148 ft
Elevation 20 ft Threshold 230 ft Heading 94
Runway 27 Length 6706 ft Width 148 ft
Elevation 10 ft Threshold 0 ft Heading 274
Airport Frequencies
Type A/G Name RDO Frequency 563.7 MHZ
Type APP Name APP Frequency 122.1 MHZ
Type TWR Name TWR Frequency 122.1 MHZ
Airport Navaids
Type VOR-DME Name Samos Frequency 111600 KHZ
Type NDB Name Samos Frequency 375 KHZ
Airport Weather Information & NOTAM
ADDS - METARS form results

(1949 UTC 25 April 2019)
Data provider http://aviationweather.gov/metar/data/
 
METAR text: LGSM 251850Z 00000KT 9999 FEW020 18/11 Q1022
Conditions at: LGSM (SAMOS AIRPORT , GR) observed 1850 UTC 25 April 2019
Temperature: 18.0°C (64°F)
Dewpoint: 11.0°C (52°F) [RH = 64%]
Pressure (altimeter): 30.18 inches Hg (1022.0 mb)
Winds: calm
Visibility: 6 or more miles (10+ km)
Ceiling: at least 12,000 feet AGL
Clouds: few clouds at 2000 feet AGL
Weather: no significant weather observed at this time

Forecast for: LGSM (SAMOS AIRPORT , GR)
Text: TAF LGSM 251700Z 2518/2603 VRB05KT 9999 FEW020
Forecast period: 1800 UTC 25 April 2019 to 0300 UTC 26 April 2019
Forecast type: FROM: standard forecast or significant change
Winds: variable direction winds at 6 MPH (5 knots; 2.6 m/s)
Visibility: 6 or more miles 10+ km)
Ceiling: at least 12,000 feet AGL
Clouds: few clouds at 2000 feet AGL
Weather: no significant weather forecast for this period